Time;durP1;ratioP1;P1;durP2;ratioP2;P2;SDS_P1;SDS_P2;PMS_P1;PMS_P2;Temp;Humidity;BMP_temperature;BMP_pressure;BME280_temperature;BME280_humidity;BME280_pressure;Samples;Min_cycle;Max_cycle;Signal;HPM_P1;HPM_P2
2021/06/16 00:01:36;;;;;;;;;;;;;;;25.99;34.97;100129.81;5241216;27;33349;-92
2021/06/16 00:04:05;;;;;;;;;;;;;;;26.65;33.49;100123.81;5241081;27;33274;-92
2021/06/16 00:06:34;;;;;;;;;;;;;;;26.42;33.80;100128.63;5240841;27;33434;-92
2021/06/16 00:09:02;;;;;;;;;;;;;;;26.17;34.27;100125.50;5241573;27;33751;-92
2021/06/16 00:11:32;;;;;;;;;;;;;;;26.34;33.77;100144.53;5241783;27;32924;-91
2021/06/16 00:14:00;;;;;;;;;;;;;;;25.34;35.70;100155.03;5241321;27;34076;-92
2021/06/16 00:16:28;;;;;;;;;;;;;;;24.93;36.92;100159.41;5241691;27;32303;-91
2021/06/16 00:18:56;;;;;;;;;;;;;;;24.91;36.98;100152.50;5241453;27;33883;-92
2021/06/16 00:21:24;;;;;;;;;;;;;;;23.68;39.45;100167.72;5240950;27;33595;-91
2021/06/16 00:23:52;;;;;;;;;;;;;;;24.16;38.70;100152.44;5259374;27;34181;-92
2021/06/16 00:26:22;;;;;;;;;;;;;;;25.04;36.70;100150.47;5242505;27;31994;-92
2021/06/16 00:28:50;;;;;;;;;;;;;;;24.94;36.72;100158.44;5241768;27;33082;-90
2021/06/16 00:31:17;;;;;;;;;;;;;;;25.52;35.55;100148.22;5241922;27;33352;-91
2021/06/16 00:33:51;;;;;;;;;;;;;;;25.79;34.92;100159.16;5244607;27;32932;-92
2021/06/16 00:36:19;;;;;;;;;;;;;;;24.21;38.21;100154.72;5244252;27;32248;-91
2021/06/16 00:38:47;;;;;;;;;;;;;;;24.77;37.05;100151.00;5261256;27;33974;-92
2021/06/16 00:41:16;;;;;;;;;;;;;;;25.49;35.59;100162.69;5261484;27;33114;-92
2021/06/16 00:43:43;;;;;;;;;;;;;;;25.23;35.97;100148.91;5263652;27;34321;-91
2021/06/16 00:46:11;;;;;;;;;;;;;;;25.70;35.06;100159.09;5241829;27;33302;-93
2021/06/16 00:48:40;;;;;;;;;;;;;;;25.43;35.42;100156.03;5241966;27;32928;-91
2021/06/16 00:51:08;;;;;;;;;;;;;;;25.08;36.28;100154.56;5242493;27;33381;-92
2021/06/16 00:53:35;;;;;;;;;;;;;;;25.09;36.37;100152.75;5241878;27;33784;-92
2021/06/16 00:56:04;;;;;;;;;;;;;;;25.60;35.37;100153.75;5260341;27;32819;-92
2021/06/16 00:58:32;;;;;;;;;;;;;;;24.90;36.65;100150.81;5241662;27;33041;-93
2021/06/16 01:01:07;;;;;;;;;;;;;;;25.23;36.15;100151.56;5242382;27;33168;-93
2021/06/16 01:03:51;;;;;;;;;;;;;;;24.88;36.70;100156.28;5224252;27;32550;-91
2021/06/16 01:06:25;;;;;;;;;;;;;;;24.91;36.54;100149.84;5242958;27;32312;-91
2021/06/16 01:08:59;;;;;;;;;;;;;;;25.25;36.01;100146.94;5242806;27;32816;-92
2021/06/16 01:11:27;;;;;;;;;;;;;;;25.34;35.99;100143.50;5242140;27;33230;-92
2021/06/16 01:13:57;;;;;;;;;;;;;;;25.34;36.08;100147.03;5242306;27;32731;-91
2021/06/16 01:16:39;;;;;;;;;;;;;;;25.41;36.12;100146.47;5242074;27;33029;-91
2021/06/16 01:19:14;;;;;;;;;;;;;;;25.83;35.31;100143.69;5242175;27;34221;-92
2021/06/16 01:21:43;;;;;;;;;;;;;;;25.63;35.66;100148.97;5246143;26;33432;-91
2021/06/16 01:24:18;;;;;;;;;;;;;;;25.52;35.69;100138.41;5262989;27;35471;-91
2021/06/16 01:26:48;;;;;;;;;;;;;;;25.72;35.36;100133.13;5241773;27;32069;-92
2021/06/16 01:29:21;;;;;;;;;;;;;;;25.25;36.27;100142.47;5242315;27;33218;-92
2021/06/16 01:31:50;;;;;;;;;;;;;;;25.61;35.75;100142.94;5242384;27;32887;-92
2021/06/16 01:34:19;;;;;;;;;;;;;;;25.91;35.32;100143.84;5242920;27;34326;-92
2021/06/16 01:36:48;;;;;;;;;;;;;;;26.11;34.91;100152.78;5242713;27;32261;-92
2021/06/16 01:39:18;;;;;;;;;;;;;;;25.61;35.83;100148.25;5242032;27;32979;-92
2021/06/16 01:41:48;;;;;;;;;;;;;;;25.60;35.86;100151.91;5242846;27;33057;-93
2021/06/16 01:44:17;;;;;;;;;;;;;;;25.53;36.02;100145.44;5260287;27;32639;-93
2021/06/16 01:46:45;;;;;;;;;;;;;;;25.67;35.91;100146.88;5250809;27;32297;-93
2021/06/16 01:49:14;;;;;;;;;;;;;;;25.46;36.22;100136.25;5268251;27;32910;-92
2021/06/16 01:51:42;;;;;;;;;;;;;;;25.38;36.27;100147.62;5243501;27;34145;-90
2021/06/16 01:54:10;;;;;;;;;;;;;;;25.11;36.77;100148.97;5252600;27;32903;-91
2021/06/16 01:56:38;;;;;;;;;;;;;;;25.18;36.49;100147.47;5272429;27;31823;-94
2021/06/16 01:59:07;;;;;;;;;;;;;;;25.24;36.40;100142.59;5243464;27;33019;-91
2021/06/16 02:01:35;;;;;;;;;;;;;;;25.41;36.03;100138.47;5268212;27;32823;-92
2021/06/16 02:04:05;;;;;;;;;;;;;;;25.31;36.14;100144.56;5260979;27;32809;-93
2021/06/16 02:06:35;;;;;;;;;;;;;;;25.20;36.31;100143.84;5345670;26;31697;-91
2021/06/16 02:09:02;;;;;;;;;;;;;;;25.07;36.60;100146.72;5263615;27;34528;-91
2021/06/16 02:11:31;;;;;;;;;;;;;;;25.10;36.73;100149.09;5249575;27;33038;-91
2021/06/16 02:13:59;;;;;;;;;;;;;;;25.00;36.86;100149.88;5267092;27;33902;-91
2021/06/16 02:16:27;;;;;;;;;;;;;;;24.45;38.09;100155.37;5263169;27;32156;-92
2021/06/16 02:18:59;;;;;;;;;;;;;;;25.01;36.96;100148.09;5277676;27;33482;-93
2021/06/16 02:21:27;;;;;;;;;;;;;;;24.57;37.95;100158.81;5242409;27;33087;-91
2021/06/16 02:23:56;;;;;;;;;;;;;;;24.72;37.61;100150.53;5259562;27;32790;-92
2021/06/16 02:26:25;;;;;;;;;;;;;;;24.29;38.26;100149.59;5260093;27;33226;-92
2021/06/16 02:28:52;;;;;;;;;;;;;;;24.85;37.01;100148.56;5241604;27;32963;-94
2021/06/16 02:31:21;;;;;;;;;;;;;;;25.00;36.77;100144.56;5259854;27;32995;-92
2021/06/16 02:33:50;;;;;;;;;;;;;;;24.98;36.79;100148.34;5259775;27;32895;-91
2021/06/16 02:36:19;;;;;;;;;;;;;;;24.75;37.27;100153.78;5241593;27;32935;-93
2021/06/16 02:38:47;;;;;;;;;;;;;;;24.83;37.01;100147.81;5242054;27;33084;-91
2021/06/16 02:41:15;;;;;;;;;;;;;;;24.34;37.83;100142.94;5264333;27;35673;-91
2021/06/16 02:43:43;;;;;;;;;;;;;;;24.66;37.09;100143.91;5270592;27;34956;-90
2021/06/16 02:46:12;;;;;;;;;;;;;;;24.72;36.86;100145.19;5271290;27;32069;-92
2021/06/16 02:48:41;;;;;;;;;;;;;;;24.60;37.01;100153.22;5255411;27;33728;-91
2021/06/16 02:51:10;;;;;;;;;;;;;;;24.28;37.68;100148.75;5249517;27;33858;-92
2021/06/16 02:53:40;;;;;;;;;;;;;;;24.44;37.39;100152.84;5248504;27;33295;-91
2021/06/16 02:56:08;;;;;;;;;;;;;;;24.39;37.62;100158.53;5242907;27;31941;-93
2021/06/16 02:58:36;;;;;;;;;;;;;;;24.18;38.12;100161.12;5259380;27;33097;-93
2021/06/16 03:01:05;;;;;;;;;;;;;;;24.39;37.63;100165.69;5259603;27;33024;-93
2021/06/16 03:03:33;;;;;;;;;;;;;;;23.97;38.36;100164.56;5242244;27;33214;-92
2021/06/16 03:06:01;;;;;;;;;;;;;;;23.92;38.46;100163.22;5242186;27;32254;-92
2021/06/16 03:08:30;;;;;;;;;;;;;;;23.92;38.57;100158.78;5242295;27;32599;-92
2021/06/16 03:10:58;;;;;;;;;;;;;;;24.22;37.92;100164.41;5259905;27;33114;-90
2021/06/16 03:13:26;;;;;;;;;;;;;;;24.01;38.29;100168.69;5242258;27;32546;-92
2021/06/16 03:15:56;;;;;;;;;;;;;;;24.21;37.79;100189.31;5242293;27;32869;-93
2021/06/16 03:18:25;;;;;;;;;;;;;;;24.40;37.26;100183.31;5242653;27;32871;-92
2021/06/16 03:20:54;;;;;;;;;;;;;;;24.98;36.07;100174.97;5240864;27;33241;-92
2021/06/16 03:23:23;;;;;;;;;;;;;;;24.93;36.12;100187.84;5242145;27;32999;-93
2021/06/16 03:25:51;;;;;;;;;;;;;;;23.98;38.08;100179.53;5241711;27;33508;-91
2021/06/16 03:28:19;;;;;;;;;;;;;;;24.16;37.77;100182.56;5241886;27;33336;-91
2021/06/16 03:30:47;;;;;;;;;;;;;;;24.34;37.43;100185.53;5241486;27;32889;-92
2021/06/16 03:33:15;;;;;;;;;;;;;;;24.46;37.12;100180.16;5241733;27;34180;-92
2021/06/16 03:35:43;;;;;;;;;;;;;;;24.24;37.69;100184.59;5241733;27;32499;-92
2021/06/16 03:38:11;;;;;;;;;;;;;;;24.31;37.55;100188.44;5241823;27;33896;-92
2021/06/16 03:40:40;;;;;;;;;;;;;;;24.32;37.51;100194.62;5241761;27;33028;-92
2021/06/16 03:43:08;;;;;;;;;;;;;;;23.94;38.34;100198.56;5241486;27;32995;-92
2021/06/16 03:45:39;;;;;;;;;;;;;;;24.39;37.40;100185.16;5242431;27;32802;-92
2021/06/16 03:48:08;;;;;;;;;;;;;;;24.66;36.98;100199.84;5241219;27;32979;-93
2021/06/16 03:50:36;;;;;;;;;;;;;;;24.41;37.48;100193.00;5241412;27;33076;-91
2021/06/16 03:53:08;;;;;;;;;;;;;;;24.88;36.69;100193.59;5333033;26;32985;-92
2021/06/16 03:55:37;;;;;;;;;;;;;;;25.00;36.48;100192.53;5242559;27;32358;-94
2021/06/16 03:58:06;;;;;;;;;;;;;;;25.08;36.30;100205.22;5241962;27;34017;-92
2021/06/16 04:00:33;;;;;;;;;;;;;;;25.05;36.45;100193.97;5241857;27;33015;-92
2021/06/16 04:03:05;;;;;;;;;;;;;;;25.01;36.64;100204.06;5260721;27;33578;-93
2021/06/16 04:05:33;;;;;;;;;;;;;;;25.22;36.26;100208.53;5241718;27;32787;-94
2021/06/16 04:08:01;;;;;;;;;;;;;;;25.03;36.75;100202.09;5260710;27;35625;-92
2021/06/16 04:10:31;;;;;;;;;;;;;;;25.06;36.98;100207.16;5243805;27;33049;-93
2021/06/16 04:13:00;;;;;;;;;;;;;;;25.32;36.53;100210.28;5242394;27;33073;-93
2021/06/16 04:15:27;;;;;;;;;;;;;;;25.63;36.07;100209.47;5241869;27;32120;-92
2021/06/16 04:17:59;;;;;;;;;;;;;;;25.89;35.74;100220.56;5244170;27;32952;-92
2021/06/16 04:20:27;;;;;;;;;;;;;;;25.87;35.89;100216.31;5242257;27;33263;-93
2021/06/16 04:22:56;;;;;;;;;;;;;;;25.37;37.08;100217.06;5242390;27;34763;-93
2021/06/16 04:25:24;;;;;;;;;;;;;;;25.64;36.64;100213.84;5241942;27;33326;-93
2021/06/16 04:27:52;;;;;;;;;;;;;;;26.15;35.60;100215.59;5241760;27;32650;-93
2021/06/16 04:30:21;;;;;;;;;;;;;;;25.88;36.28;100210.84;5242211;27;33812;-93
2021/06/16 04:32:49;;;;;;;;;;;;;;;26.69;34.77;100217.09;5241551;27;33339;-92
2021/06/16 04:35:17;;;;;;;;;;;;;;;26.75;34.71;100213.84;5242305;27;31999;-92
2021/06/16 04:37:45;;;;;;;;;;;;;;;26.61;35.10;100210.59;5241819;27;33032;-92
2021/06/16 04:40:14;;;;;;;;;;;;;;;26.75;34.95;100216.53;5242079;27;33017;-92
2021/06/16 04:42:41;;;;;;;;;;;;;;;27.31;34.09;100215.78;5245190;27;33295;-91
2021/06/16 04:45:10;;;;;;;;;;;;;;;27.36;34.08;100209.97;5265579;27;32017;-92
2021/06/16 04:47:38;;;;;;;;;;;;;;;27.63;33.80;100211.91;5245060;27;33176;-92
2021/06/16 04:50:10;;;;;;;;;;;;;;;27.95;33.23;100215.16;5243269;27;33335;-92
2021/06/16 04:52:40;;;;;;;;;;;;;;;28.00;33.19;100212.84;5260938;27;32901;-92
2021/06/16 04:55:08;;;;;;;;;;;;;;;27.29;34.91;100208.88;5242468;27;33203;-91
2021/06/16 04:57:38;;;;;;;;;;;;;;;28.15;33.38;100210.56;5242872;27;33852;-92
2021/06/16 05:00:08;;;;;;;;;;;;;;;28.36;32.95;100204.06;5260429;27;34941;-93
2021/06/16 05:02:37;;;;;;;;;;;;;;;28.22;33.37;100211.62;5242422;27;33398;-89
2021/06/16 05:05:08;;;;;;;;;;;;;;;28.54;32.87;100220.16;5243532;27;32000;-89
2021/06/16 05:07:39;;;;;;;;;;;;;;;28.42;32.96;100219.53;5261459;27;33949;-89
2021/06/16 05:10:07;;;;;;;;;;;;;;;28.60;32.51;100216.84;5261448;27;34871;-89
2021/06/16 05:12:35;;;;;;;;;;;;;;;28.96;31.93;100214.19;5241016;27;33032;-89
2021/06/16 05:15:04;;;;;;;;;;;;;;;29.38;31.25;100212.66;5258995;27;34080;-90
2021/06/16 05:17:33;;;;;;;;;;;;;;;29.14;31.42;100216.81;5241094;27;34006;-88
2021/06/16 05:20:00;;;;;;;;;;;;;;;29.32;31.15;100214.97;5258228;27;33720;-90
2021/06/16 05:22:29;;;;;;;;;;;;;;;29.60;30.42;100222.84;5258580;27;33900;-88
2021/06/16 05:24:59;;;;;;;;;;;;;;;29.78;29.65;100221.91;5241023;27;32069;-87
2021/06/16 05:27:26;;;;;;;;;;;;;;;30.00;29.09;100217.84;5258608;27;34205;-88
2021/06/16 05:29:54;;;;;;;;;;;;;;;29.99;28.98;100221.53;5332421;26;33822;-88
2021/06/16 05:32:22;;;;;;;;;;;;;;;30.25;28.43;100225.97;5240152;27;32679;-86
2021/06/16 05:34:49;;;;;;;;;;;;;;;29.48;29.39;100229.50;5239562;27;31692;-86
2021/06/16 05:37:18;;;;;;;;;;;;;;;28.86;29.99;100225.00;5239414;27;32898;-86
2021/06/16 05:39:46;;;;;;;;;;;;;;;29.11;29.74;100223.34;5258448;27;34799;-89
2021/06/16 05:42:15;;;;;;;;;;;;;;;28.81;30.48;100216.56;5259020;27;33742;-86
2021/06/16 05:44:44;;;;;;;;;;;;;;;29.22;29.44;100221.41;5258041;27;32394;-86
2021/06/16 05:47:12;;;;;;;;;;;;;;;29.24;28.97;100225.62;5275870;27;33874;-87
2021/06/16 05:49:40;;;;;;;;;;;;;;;29.25;28.73;100218.41;5240656;27;32919;-86
2021/06/16 05:52:07;;;;;;;;;;;;;;;29.01;28.78;100222.59;5261118;27;34704;-87
2021/06/16 05:54:41;;;;;;;;;;;;;;;29.65;27.87;100220.53;5279569;27;33455;-87
2021/06/16 05:57:09;;;;;;;;;;;;;;;29.72;28.03;100223.41;5244264;27;33311;-88
2021/06/16 05:59:41;;;;;;;;;;;;;;;30.01;27.24;100226.75;5244870;27;33622;-90
2021/06/16 06:02:11;;;;;;;;;;;;;;;30.49;26.70;100225.22;5262011;27;33255;-93
2021/06/16 06:04:41;;;;;;;;;;;;;;;29.98;27.80;100226.09;5245768;27;32391;-86
2021/06/16 06:07:09;;;;;;;;;;;;;;;30.14;27.46;100225.28;5261481;27;34274;-85
2021/06/16 06:09:37;;;;;;;;;;;;;;;30.87;26.32;100230.94;5242914;27;33051;-88
2021/06/16 06:12:05;;;;;;;;;;;;;;;31.00;25.87;100225.06;5261782;27;34099;-89
2021/06/16 06:14:33;;;;;;;;;;;;;;;31.08;25.65;100229.66;5261074;27;32262;-86
2021/06/16 06:17:01;;;;;;;;;;;;;;;30.73;24.42;100234.34;5242496;27;34028;-87
2021/06/16 06:19:29;;;;;;;;;;;;;;;29.99;23.63;100227.75;5242168;27;32901;-88
2021/06/16 06:21:57;;;;;;;;;;;;;;;31.17;22.14;100231.31;5258504;27;33124;-88
2021/06/16 06:24:26;;;;;;;;;;;;;;;30.89;22.18;100231.66;5260676;27;33141;-87
2021/06/16 06:26:54;;;;;;;;;;;;;;;30.62;22.08;100233.66;5261275;27;34860;-89
2021/06/16 06:29:23;;;;;;;;;;;;;;;30.82;22.22;100230.66;5242774;27;33838;-87
2021/06/16 06:31:51;;;;;;;;;;;;;;;30.21;23.03;100241.59;5242159;27;33191;-87
2021/06/16 06:34:19;;;;;;;;;;;;;;;31.96;21.19;100247.63;5279196;27;33360;-86
2021/06/16 06:36:47;;;;;;;;;;;;;;;31.78;21.19;100244.34;5278319;27;32931;-89
2021/06/16 06:39:15;;;;;;;;;;;;;;;31.62;21.20;100240.69;5243313;27;32955;-86
2021/06/16 06:41:44;;;;;;;;;;;;;;;31.47;21.64;100254.00;5260135;27;34083;-86
2021/06/16 06:44:12;;;;;;;;;;;;;;;31.79;20.86;100254.06;5278276;27;33188;-85
2021/06/16 06:46:41;;;;;;;;;;;;;;;32.13;20.62;100242.16;5264501;27;33638;-87
2021/06/16 06:49:09;;;;;;;;;;;;;;;32.02;20.70;100250.63;5268381;27;32888;-86
2021/06/16 06:51:36;;;;;;;;;;;;;;;32.26;20.35;100247.00;5245641;27;33108;-89
2021/06/16 06:54:08;;;;;;;;;;;;;;;32.28;20.04;100244.97;5264563;27;33693;-87
2021/06/16 06:56:36;;;;;;;;;;;;;;;32.10;20.48;100237.13;5288425;27;35142;-88
2021/06/16 06:59:04;;;;;;;;;;;;;;;32.45;20.60;100246.53;5266322;27;33374;-90
2021/06/16 07:01:31;;;;;;;;;;;;;;;31.67;20.95;100244.69;5284409;27;34300;-85
2021/06/16 07:04:02;;;;;;;;;;;;;;;32.83;19.67;100239.56;5244591;27;32625;-85
2021/06/16 07:06:30;;;;;;;;;;;;;;;32.84;19.60;100238.53;5261697;27;33689;-84
2021/06/16 07:08:58;;;;;;;;;;;;;;;32.16;20.56;100247.22;5210511;27;885343;-87
2021/06/16 07:11:26;;;;;;;;;;;;;;;32.80;19.77;100241.63;5244144;27;32711;-86
2021/06/16 07:13:53;;;;;;;;;;;;;;;32.02;20.65;100248.78;5243050;27;32479;-86
2021/06/16 07:16:21;;;;;;;;;;;;;;;31.79;20.78;100251.38;5242473;27;33828;-87
2021/06/16 07:18:51;;;;;;;;;;;;;;;32.89;19.73;100242.38;5243384;27;33330;-85
2021/06/16 07:21:19;;;;;;;;;;;;;;;32.56;20.14;100241.75;5243438;27;33672;-85
2021/06/16 07:23:47;;;;;;;;;;;;;;;31.98;21.06;100245.59;5260968;27;32565;-85
2021/06/16 07:26:15;;;;;;;;;;;;;;;32.56;20.49;100236.34;5243308;27;32738;-86
2021/06/16 07:28:42;;;;;;;;;;;;;;;32.38;20.70;100236.66;5260679;27;34354;-86
2021/06/16 07:31:10;;;;;;;;;;;;;;;32.39;20.49;100241.88;5242291;27;34398;-87
2021/06/16 07:33:38;;;;;;;;;;;;;;;32.12;21.06;100241.31;5260607;27;32119;-87
2021/06/16 07:36:05;;;;;;;;;;;;;;;31.97;21.46;100246.59;5242727;27;33900;-87
2021/06/16 07:38:33;;;;;;;;;;;;;;;32.47;20.32;100243.69;5260276;27;34732;-87
2021/06/16 07:41:02;;;;;;;;;;;;;;;31.70;21.36;100253.28;5276082;27;34425;-87
2021/06/16 07:43:29;;;;;;;;;;;;;;;32.69;20.36;100246.56;5239239;27;33689;-87
2021/06/16 07:45:57;;;;;;;;;;;;;;;32.23;20.61;100245.50;5258744;27;34014;-86
2021/06/16 07:48:24;;;;;;;;;;;;;;;32.06;21.06;100247.41;5262995;27;33958;-87
2021/06/16 07:50:52;;;;;;;;;;;;;;;33.00;19.92;100242.97;5260414;27;32925;-87
2021/06/16 07:53:20;;;;;;;;;;;;;;;32.59;20.16;100247.63;5260481;27;31827;-86
2021/06/16 07:55:48;;;;;;;;;;;;;;;32.28;20.11;100245.81;5260193;27;33118;-86
2021/06/16 07:58:15;;;;;;;;;;;;;;;33.46;19.10;100243.72;5243541;27;34360;-85
2021/06/16 08:00:43;;;;;;;;;;;;;;;32.91;20.25;100245.75;5260115;27;33191;-87
2021/06/16 08:03:11;;;;;;;;;;;;;;;32.91;20.34;100244.91;5240905;27;32386;-87
2021/06/16 08:05:39;;;;;;;;;;;;;;;33.55;19.39;100247.16;5259243;27;34965;-86
2021/06/16 08:08:27;;;;;;;;;;;;;;;33.23;19.83;100251.88;5246538;27;34426;-87
2021/06/16 08:10:54;;;;;;;;;;;;;;;34.35;18.36;100244.69;5259007;27;35051;-87
2021/06/16 08:13:22;;;;;;;;;;;;;;;33.55;18.82;100239.06;5258953;27;32128;-87
2021/06/16 08:15:50;;;;;;;;;;;;;;;33.69;19.58;100241.97;5241230;27;33413;-87
2021/06/16 08:18:17;;;;;;;;;;;;;;;33.90;18.82;100241.22;5258083;27;34545;-86
2021/06/16 08:20:44;;;;;;;;;;;;;;;34.45;18.33;100244.37;5258241;27;33985;-87
2021/06/16 08:23:13;;;;;;;;;;;;;;;34.65;18.04;100246.44;5241180;27;32318;-86
2021/06/16 08:25:41;;;;;;;;;;;;;;;35.08;17.62;100252.69;5258153;27;32789;-86
2021/06/16 08:28:09;;;;;;;;;;;;;;;35.04;17.66;100248.72;5240236;27;33114;-87
2021/06/16 08:30:36;;;;;;;;;;;;;;;34.60;17.67;100247.88;5258685;27;34559;-87
2021/06/16 08:33:07;;;;;;;;;;;;;;;34.86;17.46;100240.22;5241208;27;32398;-88
2021/06/16 08:35:34;;;;;;;;;;;;;;;35.49;15.99;100245.72;5259204;27;33948;-85
2021/06/16 08:38:03;;;;;;;;;;;;;;;35.12;16.88;100245.84;5259242;27;34009;-87
2021/06/16 08:40:31;;;;;;;;;;;;;;;34.98;16.34;100246.78;5259269;27;34211;-88
2021/06/16 08:42:59;;;;;;;;;;;;;;;35.51;15.47;100243.63;5259097;27;33417;-89
2021/06/16 08:45:29;;;;;;;;;;;;;;;35.60;15.44;100242.44;5240992;27;32847;-89
2021/06/16 08:47:57;;;;;;;;;;;;;;;36.13;15.25;100254.59;5259441;27;33879;-88
2021/06/16 08:50:25;;;;;;;;;;;;;;;35.81;15.26;100248.81;5278686;27;34039;-88
2021/06/16 08:52:54;;;;;;;;;;;;;;;35.29;15.91;100248.28;5262300;27;31929;-87
2021/06/16 08:55:21;;;;;;;;;;;;;;;35.77;15.63;100239.41;5262502;27;34059;-87
2021/06/16 08:57:49;;;;;;;;;;;;;;;34.53;16.87;100246.12;5262906;27;32922;-88
2021/06/16 09:00:18;;;;;;;;;;;;;;;35.92;15.86;100240.13;5241429;27;32977;-88
2021/06/16 09:02:45;;;;;;;;;;;;;;;36.60;15.16;100239.31;5259600;27;33812;-88
2021/06/16 09:05:13;;;;;;;;;;;;;;;35.71;15.55;100235.62;5258581;27;32819;-88
2021/06/16 09:07:42;;;;;;;;;;;;;;;36.63;14.71;100234.50;5241719;27;33177;-88
2021/06/16 09:10:13;;;;;;;;;;;;;;;36.52;14.68;100236.78;5258533;27;33291;-87
2021/06/16 09:12:57;;;;;;;;;;;;;;;36.24;15.16;100243.16;5259133;26;33435;-88
2021/06/16 09:15:29;;;;;;;;;;;;;;;35.60;15.41;100247.84;5241069;27;32938;-88
2021/06/16 09:18:00;;;;;;;;;;;;;;;36.58;14.85;100251.41;5240084;27;33829;-87
2021/06/16 09:20:28;;;;;;;;;;;;;;;36.93;14.76;100251.25;5239891;27;33982;-88
2021/06/16 09:23:13;;;;;;;;;;;;;;;35.66;16.55;100250.81;5259773;27;33697;-88
2021/06/16 09:25:41;;;;;;;;;;;;;;;36.63;15.95;100262.47;5240859;27;33236;-87
2021/06/16 09:28:09;;;;;;;;;;;;;;;36.50;15.84;100255.16;5258213;27;33631;-90
2021/06/16 09:30:39;;;;;;;;;;;;;;;36.34;16.25;100250.94;5258513;27;34066;-89
2021/06/16 09:33:08;;;;;;;;;;;;;;;36.52;16.05;100244.09;5240763;27;32158;-89
2021/06/16 09:35:37;;;;;;;;;;;;;;;36.80;15.71;100246.63;5276835;27;34804;-90
2021/06/16 09:38:11;;;;;;;;;;;;;;;37.16;14.71;100244.56;5258487;27;33583;-87
2021/06/16 09:40:40;;;;;;;;;;;;;;;37.06;14.21;100242.28;5259029;27;34741;-88
2021/06/16 09:43:09;;;;;;;;;;;;;;;36.89;14.92;100250.00;5240624;27;33302;-88
2021/06/16 09:45:37;;;;;;;;;;;;;;;36.82;14.83;100246.44;5239251;27;33778;-88
2021/06/16 09:48:24;;;;;;;;;;;;;;;36.81;14.52;100234.72;5256573;27;33491;-89
2021/06/16 09:50:52;;;;;;;;;;;;;;;37.29;14.12;100230.94;5257831;27;33260;-90
2021/06/16 09:53:20;;;;;;;;;;;;;;;35.99;15.44;100242.03;5242545;27;33365;-89
2021/06/16 09:55:47;;;;;;;;;;;;;;;36.83;14.08;100238.09;5242010;27;33988;-89
2021/06/16 09:58:17;;;;;;;;;;;;;;;37.78;13.15;100234.22;5261617;27;32905;-88
2021/06/16 10:00:47;;;;;;;;;;;;;;;38.10;12.74;100237.84;5244267;27;33699;-90
2021/06/16 10:03:16;;;;;;;;;;;;;;;36.95;13.46;100241.03;5242264;27;33168;-91
2021/06/16 10:06:03;;;;;;;;;;;;;;;36.94;13.52;100228.50;5241520;27;33019;-91
2021/06/16 10:08:31;;;;;;;;;;;;;;;37.19;13.06;100231.41;5259234;27;33970;-91
2021/06/16 10:10:59;;;;;;;;;;;;;;;37.83;13.16;100242.56;5241439;27;32766;-92
2021/06/16 10:13:27;;;;;;;;;;;;;;;37.98;13.09;100230.59;5241458;27;32292;-90
2021/06/16 10:15:56;;;;;;;;;;;;;;;36.86;14.10;100239.56;5259741;27;33753;-91
2021/06/16 10:18:24;;;;;;;;;;;;;;;37.39;13.54;100239.53;5259455;27;34139;-90
2021/06/16 10:20:52;;;;;;;;;;;;;;;38.39;12.85;100237.50;5259154;27;34025;-89
2021/06/16 10:23:20;;;;;;;;;;;;;;;38.23;13.23;100234.22;5240726;27;32448;-90
2021/06/16 10:25:47;;;;;;;;;;;;;;;38.05;12.92;100226.78;5240655;27;34076;-89
2021/06/16 10:28:18;;;;;;;;;;;;;;;38.18;12.80;100228.59;5259816;26;34083;-88
2021/06/16 10:30:51;;;;;;;;;;;;;;;37.05;13.69;100222.41;5261614;27;34142;-89
2021/06/16 10:33:31;;;;;;;;;;;;;;;37.52;14.05;100224.25;5277764;27;33106;-89
2021/06/16 10:36:16;;;;;;;;;;;;;;;38.12;13.30;100228.62;5277394;27;34267;-90
2021/06/16 10:38:56;;;;;;;;;;;;;;;38.86;12.42;100220.84;5278048;27;34357;-91
2021/06/16 10:41:43;;;;;;;;;;;;;;;38.22;13.04;100218.94;5287260;27;34080;-92
2021/06/16 10:44:10;;;;;;;;;;;;;;;38.23;12.72;100222.50;5271140;27;33244;-91
2021/06/16 10:46:48;;;;;;;;;;;;;;;38.12;12.78;100221.31;5269157;27;34524;-88
2021/06/16 10:49:15;;;;;;;;;;;;;;;37.61;13.06;100214.81;5283804;27;34913;-87
2021/06/16 10:51:43;;;;;;;;;;;;;;;38.05;13.22;100220.50;5261319;27;32942;-88
2021/06/16 10:54:10;;;;;;;;;;;;;;;38.62;13.47;100217.03;5261885;27;33115;-88
2021/06/16 10:56:42;;;;;;;;;;;;;;;38.90;13.14;100216.63;5298233;27;33652;-87
2021/06/16 10:59:10;;;;;;;;;;;;;;;39.28;12.67;100212.94;5260243;27;32873;-88
2021/06/16 11:01:47;;;;;;;;;;;;;;;38.94;12.59;100217.03;5258179;27;33310;-88
2021/06/16 11:04:25;;;;;;;;;;;;;;;38.07;13.87;100215.69;5240217;27;33225;-88
2021/06/16 11:06:52;;;;;;;;;;;;;;;38.56;13.32;100216.87;5240317;27;33884;-89
2021/06/16 11:09:40;;;;;;;;;;;;;;;38.40;13.56;100214.66;5258764;27;33430;-88
2021/06/16 11:12:09;;;;;;;;;;;;;;;38.50;13.28;100206.03;5295963;27;33610;-89
2021/06/16 11:14:39;;;;;;;;;;;;;;;38.56;13.16;100202.41;5259124;26;31940;-90
2021/06/16 11:17:10;;;;;;;;;;;;;;;38.57;13.40;100196.78;5275872;27;33878;-88
2021/06/16 11:19:39;;;;;;;;;;;;;;;39.00;13.09;100200.63;5239684;27;33141;-88
2021/06/16 11:22:13;;;;;;;;;;;;;;;39.08;13.15;100199.50;5258117;27;34866;-88
2021/06/16 11:24:59;;;;;;;;;;;;;;;38.89;13.09;100191.28;5275439;27;32245;-88
2021/06/16 11:27:48;;;;;;;;;;;;;;;38.13;12.95;100197.66;5275737;27;32956;-89
2021/06/16 11:30:34;;;;;;;;;;;;;;;39.08;12.39;100196.78;5295813;27;34255;-89
2021/06/16 11:33:10;;;;;;;;;;;;;;;38.51;12.75;100197.66;5277321;27;35109;-88
2021/06/16 11:35:39;;;;;;;;;;;;;;;38.66;12.70;100200.03;5276420;27;32490;-87
2021/06/16 11:38:10;;;;;;;;;;;;;;;38.71;12.52;100192.06;5258169;27;34375;-88
2021/06/16 11:40:38;;;;;;;;;;;;;;;39.28;12.46;100198.47;5222806;27;34052;-88
2021/06/16 11:43:06;;;;;;;;;;;;;;;39.20;12.75;100181.38;5240028;27;32755;-89
2021/06/16 11:45:34;;;;;;;;;;;;;;;39.88;12.46;100187.69;5276074;27;33223;-89
2021/06/16 11:48:02;;;;;;;;;;;;;;;40.27;12.03;100181.09;5257928;27;33652;-88
2021/06/16 11:50:31;;;;;;;;;;;;;;;39.67;12.53;100180.84;5275832;27;35058;-88
2021/06/16 11:53:01;;;;;;;;;;;;;;;40.31;11.78;100176.84;5260491;27;34403;-87
2021/06/16 11:55:43;;;;;;;;;;;;;;;39.77;12.19;100174.00;5261511;27;34396;-86
2021/06/16 11:58:24;;;;;;;;;;;;;;;40.30;11.95;100167.00;5259266;27;33710;-88
2021/06/16 12:00:53;;;;;;;;;;;;;;;40.37;12.32;100167.72;5275596;27;34201;-87
2021/06/16 12:03:23;;;;;;;;;;;;;;;39.31;13.32;100182.50;5239176;27;33519;-87
2021/06/16 12:05:58;;;;;;;;;;;;;;;39.94;12.14;100163.28;5257812;27;31995;-89
2021/06/16 12:08:27;;;;;;;;;;;;;;;39.84;13.01;100166.59;5258027;27;34597;-88
2021/06/16 12:10:55;;;;;;;;;;;;;;;39.38;13.02;100168.81;5275393;27;34191;-86
2021/06/16 12:13:22;;;;;;;;;;;;;;;40.10;12.21;100162.66;5239796;27;33940;-88
2021/06/16 12:15:50;;;;;;;;;;;;;;;40.09;12.21;100147.38;5239815;27;32128;-88
2021/06/16 12:18:18;;;;;;;;;;;;;;;40.11;12.26;100147.16;5241313;27;33850;-87
2021/06/16 12:20:49;;;;;;;;;;;;;;;40.27;12.31;100151.09;5258285;27;34907;-88
2021/06/16 12:23:35;;;;;;;;;;;;;;;40.48;12.21;100146.97;5276100;27;33280;-87
2021/06/16 12:26:03;;;;;;;;;;;;;;;40.27;11.21;100151.91;5277002;27;33070;-88
2021/06/16 12:28:31;;;;;;;;;;;;;;;40.15;11.71;100145.59;5258641;27;34270;-89
2021/06/16 12:30:59;;;;;;;;;;;;;;;40.36;12.13;100149.69;5241403;27;34025;-87
2021/06/16 12:33:38;;;;;;;;;;;;;;;39.49;12.64;100145.41;5260106;27;34009;-88
2021/06/16 12:36:15;;;;;;;;;;;;;;;40.49;11.88;100144.00;5278696;27;32920;-88
2021/06/16 12:38:57;;;;;;;;;;;;;;;40.35;12.29;100139.81;5263160;27;34834;-87
2021/06/16 12:41:30;;;;;;;;;;;;;;;40.62;11.69;100137.53;5241870;27;33092;-88
2021/06/16 12:44:13;;;;;;;;;;;;;;;39.79;12.29;100141.91;5258479;27;33198;-88
2021/06/16 12:46:48;;;;;;;;;;;;;;;40.32;12.12;100143.03;5276035;27;32683;-87
2021/06/16 12:49:16;;;;;;;;;;;;;;;39.76;12.04;100135.03;5258048;27;34067;-85